Mexico V — XCKR — position and weather

sailwx.info

Track history (hours):
 
Tides and Currents Weather Stations Pressure Air Temp Water Temp Dewpoint Dewpoint Depression Visibility Wind Speed Wind Dir Waves Ship Positions

Mexico V

Last reported at 2016-May-25 20:33 UTC. Time now 2016-May-25 20:47 UTC.
Position N 20°31' W 086°57'.

Length 40 m; draft 1.5 m.

Type: Ship. MMSI: 345110005.

Date/timePositionNaut miles runAvg speedWind from/ knotsBaromVisibWave heightAir tempDewpointWater temp
2016-May-25 20:33N 20°31' W 086°57'2 1.6
2016-May-25 19:33N 20°32' W 086°58'3 2.2
2016-May-25 18:19N 20°34' W 087°01'2 2.0
2016-May-25 17:34N 20°32' W 086°59'2 1.3
2016-May-25 16:20N 20°34' W 087°00'4 5.6
2016-May-25 15:33N 20°31' W 086°57'0 0.0
2016-May-25 14:33N 20°31' W 086°57'2 1.7
2016-May-25 13:33N 20°32' W 086°58'3 2.9
2016-May-25 12:23N 20°34' W 087°01'3 0.3
2016-May-25 01:34N 20°33' W 086°58'2 1.6
2016-May-25 00:20N 20°34' W 087°00'2 2.7
2016-May-24 23:34N 20°32' W 086°59'2 1.4
2016-May-24 22:21N 20°33' W 086°60'4 4.6
2016-May-24 21:33N 20°31' W 086°57'0 0.1
2016-May-24 20:33N 20°31' W 086°57'0 0.0
2016-May-24 19:33N 20°31' W 086°57'0 0.0
2016-May-24 18:33N 20°31' W 086°57'0 0.0
2016-May-24 17:33N 20°31' W 086°57'2 2.4
2016-May-24 16:33N 20°32' W 086°59'1 1.1
2016-May-24 15:15N 20°33' W 086°60'2 2.6
2016-May-24 14:33N 20°32' W 086°59'2 1.4
2016-May-24 13:17N 20°34' W 086°60'1 1.2
2016-May-24 12:33N 20°33' W 086°59'1 0.9
2016-May-24 11:21N 20°34' W 087°00'3 0.4
2016-May-24 03:34N 20°31' W 086°58'3 2.5
2016-May-24 02:18N 20°34' W 086°60'4 5.2
2016-May-24 01:34N 20°31' W 086°57'0 0.1
2016-May-24 00:34N 20°31' W 086°57'0 0.0
2016-May-23 23:34N 20°31' W 086°57'1 0.8
2016-May-23 22:33N 20°31' W 086°58'3 2.5
2016-May-23 21:19N 20°34' W 087°00'4 5.2
2016-May-23 20:33N 20°31' W 086°57'2 1.6
2016-May-23 19:33N 20°32' W 086°58'2 2.0
2016-May-23 18:21N 20°34' W 087°00'1 1.9
2016-May-23 17:34N 20°33' W 086°59'1 0.8
2016-May-23 16:17N 20°33' W 086°60'4 4.8
2016-May-23 15:33N 20°31' W 086°57'0 0.0
2016-May-23 14:33N 20°31' W 086°57'1 0.8
2016-May-23 13:33N 20°31' W 086°58'3 2.2
2016-May-23 12:18N 20°33' W 086°60'2 0.2
2016-May-23 01:34N 20°32' W 086°58'2 1.6
2016-May-23 00:22N 20°34' W 086°60'2 3.0
2016-May-22 23:33N 20°32' W 086°58'3 2.9
2016-May-22 22:22N 20°34' W 087°00'5 5.8
2016-May-22 21:34N 20°31' W 086°57'0 0.1
2016-May-22 20:34N 20°31' W 086°57'0 0.0
2016-May-22 19:33N 20°31' W 086°57'0 0.0
2016-May-22 18:34N 20°31' W 086°57'0 0.0
2016-May-22 17:33N 20°31' W 086°57'3 2.8
2016-May-22 16:34N 20°32' W 086°59'1 1.0
2016-May-22 15:19N 20°33' W 086°60'4 5.1
2016-May-22 14:34N 20°31' W 086°57'0 0.0
2016-May-22 13:34N 20°31' W 086°57'1 1.1
2016-May-22 12:33N 20°31' W 086°58'3 2.5
2016-May-22 11:17N 20°34' W 087°00'4 0.5
2016-May-22 03:15N 20°31' W 086°57'1 1.9
2016-May-22 02:33N 20°32' W 086°58'3 2.3
2016-May-22 01:20N 20°34' W 087°00'4 5.3
2016-May-22 00:33N 20°31' W 086°57'0 0.0
2016-May-21 23:33N 20°31' W 086°57'2 1.6
2016-May-21 22:33N 20°32' W 086°58'3 2.5
2016-May-21 21:23N 20°34' W 087°00'4 5.5
2016-May-21 20:34N 20°31' W 086°57'2 2.2
2016-May-21 19:34N 20°32' W 086°58'1 1.2
2016-May-21 18:18N 20°33' W 086°60'1 1.8
2016-May-21 17:34N 20°33' W 086°59'2 1.8
2016-May-21 16:20N 20°34' W 087°00'5 6.0
2016-May-21 15:33N 20°31' W 086°57'0 0.1
2016-May-21 14:33N 20°31' W 086°57'1 1.5
2016-May-21 13:33N 20°32' W 086°58'2 1.6
2016-May-21 12:18N 20°33' W 086°60'1 0.1
2016-May-21 01:34N 20°32' W 086°58'2 1.5
2016-May-21 00:20N 20°33' W 086°60'2 2.0
2016-May-20 23:34N 20°33' W 086°58'1 0.7
2016-May-20 22:20N 20°33' W 086°59'3 3.8
2016-May-20 21:33N 20°31' W 086°57'0 0.1
2016-May-20 20:33N 20°31' W 086°57'0 0.0
2016-May-20 19:33N 20°31' W 086°57'0 0.0
2016-May-20 18:33N 20°31' W 086°57'0 0.0
2016-May-20 17:33N 20°31' W 086°57'2 2.2
2016-May-20 16:33N 20°32' W 086°59'2 1.3
2016-May-20 15:20N 20°33' W 087°00'1 1.2
2016-May-20 14:34N 20°33' W 086°59'0 0.2
2016-May-20 13:15N 20°33' W 086°60'2 2.6
2016-May-20 12:33N 20°32' W 086°58'2 1.7
2016-May-20 11:16N 20°33' W 086°60'4 0.4
2016-May-20 03:10N 20°31' W 086°57'1 2.1
2016-May-20 02:34N 20°32' W 086°58'2 2.0
2016-May-20 01:18N 20°33' W 086°60'4 5.0
2016-May-20 00:33N 20°31' W 086°57'0 0.0
2016-May-19 23:33N 20°31' W 086°57'1 1.3
2016-May-19 22:34N 20°32' W 086°58'2 1.6
2016-May-19 21:17N 20°33' W 086°60'3 4.5
2016-May-19 20:33N 20°31' W 086°57'2 1.9
2016-May-19 19:34N 20°32' W 086°58'2 1.4
2016-May-19 18:20N 20°33' W 086°60'0 0.6
2016-May-19 17:33N 20°33' W 086°59'2 1.9
2016-May-19 16:27N 20°35' W 087°01'2 2.5
2016-May-19 15:33N 20°33' W 086°59'1 0.7
2016-May-19 14:19N 20°34' W 086°60'4 5.0
2016-May-19 13:33N 20°31' W 086°57'0 0.1
2016-May-19 12:33N 20°31' W 086°57'0 0.0
2016-May-19 11:33N 20°31' W 086°57'0 0.0
2016-May-19 01:25N 20°31' W 086°57'0 0.1
2016-May-18 23:33N 20°31' W 086°57'0 0.1
2016-May-18 22:33N 20°31' W 086°57'0 0.0
2016-May-18 21:33N 20°31' W 086°57'0 0.0
2016-May-18 20:33N 20°31' W 086°57'0 0.0
2016-May-18 19:33N 20°31' W 086°57'0 0.0
2016-May-18 18:33N 20°31' W 086°57'0 0.0
2016-May-18 17:33N 20°31' W 086°57'2 2.1
2016-May-18 16:34N 20°32' W 086°58'2 1.8
2016-May-18 15:18N 20°34' W 087°00'3 3.4
2016-May-18 14:33N 20°32' W 086°58'2 1.9
2016-May-18 13:20N 20°34' W 087°00'3 4.4
2016-May-18 12:33N 20°31' W 086°58'3 2.1
2016-May-18 11:16N 20°33' W 086°60'3 0.4
2016-May-18 03:09N 20°31' W 086°57'0 0.4
2016-May-18 02:34N 20°31' W 086°57'5 3.7
2016-May-18 01:21N 20°34' W 087°01'5 6.0
2016-May-18 00:34N 20°31' W 086°57'0 0.0
2016-May-17 23:34N 20°31' W 086°57'2 2.0
2016-May-17 22:33N 20°32' W 086°59'2 1.7
2016-May-17 21:19N 20°34' W 087°00'4 5.3
2016-May-17 20:33N 20°31' W 086°57'2 2.1
2016-May-17 19:33N 20°32' W 086°59'2 2.0
2016-May-17 18:21N 20°34' W 087°00'1 1.8
2016-May-17 17:34N 20°33' W 086°59'2 1.3
2016-May-17 16:21N 20°34' W 087°00'5 6.0
2016-May-17 15:34N 20°31' W 086°57'2 0.8
2016-May-17 12:33N 20°29' W 086°59'1 1.2
2016-May-17 11:33N 20°30' W 086°58'3 0.3
2016-May-17 01:33N 20°33' W 086°58'2 1.3
2016-May-17 00:21N 20°33' W 086°60'1 1.2
2016-May-16 23:33N 20°33' W 086°59'1 1.0
2016-May-16 22:22N 20°33' W 087°00'4 4.4
2016-May-16 21:33N 20°31' W 086°57'0 0.1
2016-May-16 20:33N 20°31' W 086°57'0 0.0
2016-May-16 19:33N 20°31' W 086°57'2 2.5
2016-May-16 18:34N 20°33' W 086°58'3 0.5
2016-May-16 13:33N 20°30' W 086°57'0 0.0
2016-May-16 12:33N 20°30' W 086°57'0 0.3
2016-May-16 11:33N 20°31' W 086°57'3 0.4
2016-May-16 03:33N 20°33' W 086°59'1 0.7
2016-May-16 02:17N 20°33' W 086°60'4 5.1
2016-May-16 01:34N 20°31' W 086°57'2 2.5
2016-May-16 00:34N 20°32' W 086°59'2 1.6
2016-May-15 23:22N 20°34' W 087°00'3 3.2
2016-May-15 22:33N 20°32' W 086°58'3 2.1
2016-May-15 21:19N 20°34' W 087°00'4 5.6
2016-May-15 20:33N 20°31' W 086°57'  
Track history (hours):
 
Tides and Currents Weather Stations Pressure Air Temp Water Temp Dewpoint Dewpoint Depression Visibility Wind Speed Wind Dir Waves Ship Positions

Mexico V

Last reported at 2016-May-25 20:33 UTC. Time now 2016-May-25 20:47 UTC.
Position N 20°31' W 086°57'.

Length 40 m; draft 1.5 m.

Type: Ship. MMSI: 345110005.

Date/timePositionNaut miles runAvg speedWind from/ knotsBaromVisibWave heightAir tempDewpointWater temp
2016-May-25 20:33N 20°31' W 086°57'2 1.6
2016-May-25 19:33N 20°32' W 086°58'3 2.2
2016-May-25 18:19N 20°34' W 087°01'2 2.0
2016-May-25 17:34N 20°32' W 086°59'2 1.3
2016-May-25 16:20N 20°34' W 087°00'4 5.6
2016-May-25 15:33N 20°31' W 086°57'0 0.0
2016-May-25 14:33N 20°31' W 086°57'2 1.7
2016-May-25 13:33N 20°32' W 086°58'3 2.9
2016-May-25 12:23N 20°34' W 087°01'3 0.3
2016-May-25 01:34N 20°33' W 086°58'2 1.6
2016-May-25 00:20N 20°34' W 087°00'2 2.7
2016-May-24 23:34N 20°32' W 086°59'2 1.4
2016-May-24 22:21N 20°33' W 086°60'4 4.6
2016-May-24 21:33N 20°31' W 086°57'0 0.1
2016-May-24 20:33N 20°31' W 086°57'0 0.0
2016-May-24 19:33N 20°31' W 086°57'0 0.0
2016-May-24 18:33N 20°31' W 086°57'0 0.0
2016-May-24 17:33N 20°31' W 086°57'2 2.4
2016-May-24 16:33N 20°32' W 086°59'1 1.1
2016-May-24 15:15N 20°33' W 086°60'2 2.6
2016-May-24 14:33N 20°32' W 086°59'2 1.4
2016-May-24 13:17N 20°34' W 086°60'1 1.2
2016-May-24 12:33N 20°33' W 086°59'1 0.9
2016-May-24 11:21N 20°34' W 087°00'3 0.4
2016-May-24 03:34N 20°31' W 086°58'3 2.5
2016-May-24 02:18N 20°34' W 086°60'4 5.2
2016-May-24 01:34N 20°31' W 086°57'0 0.1
2016-May-24 00:34N 20°31' W 086°57'0 0.0
2016-May-23 23:34N 20°31' W 086°57'1 0.8
2016-May-23 22:33N 20°31' W 086°58'3 2.5
2016-May-23 21:19N 20°34' W 087°00'4 5.2
2016-May-23 20:33N 20°31' W 086°57'2 1.6
2016-May-23 19:33N 20°32' W 086°58'2 2.0
2016-May-23 18:21N 20°34' W 087°00'1 1.9
2016-May-23 17:34N 20°33' W 086°59'1 0.8
2016-May-23 16:17N 20°33' W 086°60'4 4.8
2016-May-23 15:33N 20°31' W 086°57'0 0.0
2016-May-23 14:33N 20°31' W 086°57'1 0.8
2016-May-23 13:33N 20°31' W 086°58'3 2.2
2016-May-23 12:18N 20°33' W 086°60'2 0.2
2016-May-23 01:34N 20°32' W 086°58'2 1.6
2016-May-23 00:22N 20°34' W 086°60'2 3.0
2016-May-22 23:33N 20°32' W 086°58'3 2.9
2016-May-22 22:22N 20°34' W 087°00'5 5.8
2016-May-22 21:34N 20°31' W 086°57'0 0.1
2016-May-22 20:34N 20°31' W 086°57'0 0.0
2016-May-22 19:33N 20°31' W 086°57'0 0.0
2016-May-22 18:34N 20°31' W 086°57'0 0.0
2016-May-22 17:33N 20°31' W 086°57'3 2.8
2016-May-22 16:34N 20°32' W 086°59'1 1.0
2016-May-22 15:19N 20°33' W 086°60'4 5.1
2016-May-22 14:34N 20°31' W 086°57'0 0.0
2016-May-22 13:34N 20°31' W 086°57'1 1.1
2016-May-22 12:33N 20°31' W 086°58'3 2.5
2016-May-22 11:17N 20°34' W 087°00'4 0.5
2016-May-22 03:15N 20°31' W 086°57'1 1.9
2016-May-22 02:33N 20°32' W 086°58'3 2.3
2016-May-22 01:20N 20°34' W 087°00'4 5.3
2016-May-22 00:33N 20°31' W 086°57'0 0.0
2016-May-21 23:33N 20°31' W 086°57'2 1.6
2016-May-21 22:33N 20°32' W 086°58'3 2.5
2016-May-21 21:23N 20°34' W 087°00'4 5.5
2016-May-21 20:34N 20°31' W 086°57'2 2.2
2016-May-21 19:34N 20°32' W 086°58'1 1.2
2016-May-21 18:18N 20°33' W 086°60'1 1.8
2016-May-21 17:34N 20°33' W 086°59'2 1.8
2016-May-21 16:20N 20°34' W 087°00'5 6.0
2016-May-21 15:33N 20°31' W 086°57'0 0.1
2016-May-21 14:33N 20°31' W 086°57'1 1.5
2016-May-21 13:33N 20°32' W 086°58'2 1.6
2016-May-21 12:18N 20°33' W 086°60'1 0.1
2016-May-21 01:34N 20°32' W 086°58'2 1.5
2016-May-21 00:20N 20°33' W 086°60'2 2.0
2016-May-20 23:34N 20°33' W 086°58'1 0.7
2016-May-20 22:20N 20°33' W 086°59'3 3.8
2016-May-20 21:33N 20°31' W 086°57'0 0.1
2016-May-20 20:33N 20°31' W 086°57'0 0.0
2016-May-20 19:33N 20°31' W 086°57'0 0.0
2016-May-20 18:33N 20°31' W 086°57'0 0.0
2016-May-20 17:33N 20°31' W 086°57'2 2.2
2016-May-20 16:33N 20°32' W 086°59'2 1.3
2016-May-20 15:20N 20°33' W 087°00'1 1.2
2016-May-20 14:34N 20°33' W 086°59'0 0.2
2016-May-20 13:15N 20°33' W 086°60'2 2.6
2016-May-20 12:33N 20°32' W 086°58'2 1.7
2016-May-20 11:16N 20°33' W 086°60'4 0.4
2016-May-20 03:10N 20°31' W 086°57'1 2.1
2016-May-20 02:34N 20°32' W 086°58'2 2.0
2016-May-20 01:18N 20°33' W 086°60'4 5.0
2016-May-20 00:33N 20°31' W 086°57'0 0.0
2016-May-19 23:33N 20°31' W 086°57'1 1.3
2016-May-19 22:34N 20°32' W 086°58'2 1.6
2016-May-19 21:17N 20°33' W 086°60'3 4.5
2016-May-19 20:33N 20°31' W 086°57'2 1.9
2016-May-19 19:34N 20°32' W 086°58'2 1.4
2016-May-19 18:20N 20°33' W 086°60'0 0.6
2016-May-19 17:33N 20°33' W 086°59'2 1.9
2016-May-19 16:27N 20°35' W 087°01'2 2.5
2016-May-19 15:33N 20°33' W 086°59'1 0.7
2016-May-19 14:19N 20°34' W 086°60'4 5.0
2016-May-19 13:33N 20°31' W 086°57'0 0.1
2016-May-19 12:33N 20°31' W 086°57'0 0.0
2016-May-19 11:33N 20°31' W 086°57'0 0.0
2016-May-19 01:25N 20°31' W 086°57'0 0.1
2016-May-18 23:33N 20°31' W 086°57'0 0.1
2016-May-18 22:33N 20°31' W 086°57'0 0.0
2016-May-18 21:33N 20°31' W 086°57'0 0.0
2016-May-18 20:33N 20°31' W 086°57'0 0.0
2016-May-18 19:33N 20°31' W 086°57'0 0.0
2016-May-18 18:33N 20°31' W 086°57'0 0.0
2016-May-18 17:33N 20°31' W 086°57'2 2.1
2016-May-18 16:34N 20°32' W 086°58'2 1.8
2016-May-18 15:18N 20°34' W 087°00'3 3.4
2016-May-18 14:33N 20°32' W 086°58'2 1.9
2016-May-18 13:20N 20°34' W 087°00'3 4.4
2016-May-18 12:33N 20°31' W 086°58'3 2.1
2016-May-18 11:16N 20°33' W 086°60'3 0.4
2016-May-18 03:09N 20°31' W 086°57'0 0.4
2016-May-18 02:34N 20°31' W 086°57'5 3.7
2016-May-18 01:21N 20°34' W 087°01'5 6.0
2016-May-18 00:34N 20°31' W 086°57'0 0.0
2016-May-17 23:34N 20°31' W 086°57'2 2.0
2016-May-17 22:33N 20°32' W 086°59'2 1.7
2016-May-17 21:19N 20°34' W 087°00'4 5.3
2016-May-17 20:33N 20°31' W 086°57'2 2.1
2016-May-17 19:33N 20°32' W 086°59'2 2.0
2016-May-17 18:21N 20°34' W 087°00'1 1.8
2016-May-17 17:34N 20°33' W 086°59'2 1.3
2016-May-17 16:21N 20°34' W 087°00'5 6.0
2016-May-17 15:34N 20°31' W 086°57'2 0.8
2016-May-17 12:33N 20°29' W 086°59'1 1.2
2016-May-17 11:33N 20°30' W 086°58'3 0.3
2016-May-17 01:33N 20°33' W 086°58'2 1.3
2016-May-17 00:21N 20°33' W 086°60'1 1.2
2016-May-16 23:33N 20°33' W 086°59'1 1.0
2016-May-16 22:22N 20°33' W 087°00'4 4.4
2016-May-16 21:33N 20°31' W 086°57'0 0.1
2016-May-16 20:33N 20°31' W 086°57'0 0.0
2016-May-16 19:33N 20°31' W 086°57'2 2.5
2016-May-16 18:34N 20°33' W 086°58'3 0.5
2016-May-16 13:33N 20°30' W 086°57'0 0.0
2016-May-16 12:33N 20°30' W 086°57'0 0.3
2016-May-16 11:33N 20°31' W 086°57'3 0.4
2016-May-16 03:33N 20°33' W 086°59'1 0.7
2016-May-16 02:17N 20°33' W 086°60'4 5.1
2016-May-16 01:34N 20°31' W 086°57'2 2.5
2016-May-16 00:34N 20°32' W 086°59'2 1.6
2016-May-15 23:22N 20°34' W 087°00'3 3.2
2016-May-15 22:33N 20°32' W 086°58'3 2.1
2016-May-15 21:19N 20°34' W 087°00'4 5.6
2016-May-15 20:33N 20°31' W 086°57'  

Dump ship's entire track history